.
WxDataArchive / Data Records for 2008-03-05
2008-03-04 March 2008 2008-03-06

Data Records for Wednesday, 05 March 2008

Time	Temp	Chill	HIndex	Humid	Dewpt	 Wind 	HiWind	WindDir	Rain 	Barom 
-----	----	-----	------	-----	-----	------	------	-------	-----	----- 
00:00	23.6	23.6	23.6	92	21.6	1	3	0	0.00	29.707 
00:05	23.6	23.6	23.6	92	21.6	1	3	315	0.00	29.706 
00:10	23.6	23.6	23.6	92	21.6	0	2	315	0.00	29.708 
00:15	23.6	23.6	23.6	92	21.6	1	4	338	0.00	29.709 
00:20	23.6	23.6	23.6	92	21.6	1	4	315	0.00	29.712 
00:25	23.6	23.6	23.6	92	21.6	1	5	338	0.00	29.711 
00:30	23.5	23.5	23.5	92	21.5	1	4	338	0.00	29.711 
00:35	23.5	23.5	23.5	92	21.5	1	3	338	0.00	29.711 
00:40	23.5	23.5	23.5	92	21.5	1	4	338	0.00	29.715 
00:45	23.5	23.5	23.5	92	21.5	1	3	315	0.00	29.718 
00:50	23.5	23.5	23.5	92	21.5	1	7	270	0.00	29.719 
00:55	23.5	23.5	23.5	91	21.3	1	4	338	0.00	29.722 
01:00	23.5	23.5	23.5	91	21.3	1	4	315	0.00	29.722 
01:05	23.3	23.3	23.3	91	21.1	1	5	338	0.00	29.723 
01:10	23.3	23.3	23.3	91	21.1	1	4	338	0.00	29.722 
01:15	23.2	23.2	23.2	90	20.7	1	6	22	0.00	29.726 
01:20	23.2	23.2	23.2	90	20.7	1	4	315	0.00	29.723 
01:25	23.2	23.2	23.2	90	20.7	1	4	0	0.00	29.723 
01:30	23.0	23.0	23.0	90	20.5	2	7	338	0.00	29.724 
01:35	22.9	22.9	22.9	89	20.2	2	5	0	0.00	29.726 
01:40	22.9	22.9	22.9	89	20.2	1	3	0	0.00	29.730 
01:45	22.9	22.9	22.9	89	20.2	1	3	338	0.00	29.728 
01:50	22.9	22.9	22.9	89	20.2	1	4	338	0.00	29.737 
01:55	22.7	22.7	22.7	89	20.0	2	5	338	0.00	29.738 
02:00	22.5	22.5	22.5	88	19.5	1	4	0	0.00	29.741 
02:05	22.5	22.5	22.5	88	19.5	1	2	338	0.00	29.740 
02:10	22.5	22.5	22.5	88	19.5	1	4	292	0.00	29.737 
02:15	22.4	22.4	22.4	88	19.4	2	7	270	0.00	29.741 
02:20	22.4	22.4	22.4	88	19.4	2	4	338	0.00	29.732 
02:25	22.2	22.2	22.2	87	18.9	1	6	338	0.00	29.726 
02:30	22.2	22.2	22.2	87	18.9	1	6	0	0.00	29.719 
02:35	22.2	22.2	22.2	87	18.9	1	5	0	0.00	29.711 
02:40	22.2	22.2	22.2	86	18.7	1	3	0	0.00	29.712 
02:45	22.2	22.2	22.2	86	18.7	1	6	0	0.00	29.711 
02:50	22.2	22.2	22.2	86	18.7	1	2	315	0.00	29.710 
02:55	22.2	22.2	22.2	86	18.7	1	2	315	0.00	29.711 
03:00	22.2	22.2	22.2	86	18.7	1	4	292	0.00	29.712 
03:05	22.2	22.2	22.2	86	18.7	1	4	270	0.00	29.719 
03:10	22.2	22.2	22.2	86	18.7	2	6	270	0.00	29.716 
03:15	22.4	22.4	22.4	86	18.9	1	5	270	0.00	29.722 
03:20	22.4	22.4	22.4	86	18.9	1	4	292	0.00	29.722 
03:25	22.4	22.4	22.4	86	18.9	0	2	270	0.00	29.724 
03:30	22.4	22.4	22.4	86	18.9	0	2	270	0.00	29.721 
03:35	22.4	22.4	22.4	86	18.9	1	2	270	0.00	29.731 
03:40	22.4	22.4	22.4	86	18.9	1	3	0	0.00	29.737 
03:45	22.5	22.5	22.5	85	18.7	1	4	292	0.00	29.746 
03:50	22.4	22.4	22.4	85	18.6	1	5	338	0.00	29.751 
03:55	22.4	22.4	22.4	85	18.6	1	3	315	0.00	29.754 
04:00	22.2	22.2	22.2	85	18.4	1	2	315	0.00	29.756 
04:05	22.2	22.2	22.2	85	18.4	1	3	315	0.00	29.760 
04:10	22.2	22.2	22.2	85	18.4	1	5	338	0.00	29.763 
04:15	22.2	22.2	22.2	84	18.1	1	4	315	0.00	29.762 
04:20	22.1	22.1	22.1	84	18.0	1	4	315	0.00	29.761 
04:25	21.9	21.9	21.9	84	17.8	1	2	315	0.00	29.764 
04:30	21.8	21.8	21.8	84	17.7	1	4	270	0.00	29.762 
04:35	21.8	21.8	21.8	84	17.7	1	4	338	0.00	29.764 
04:40	21.8	21.8	21.8	84	17.7	1	3	315	0.00	29.774 
04:45	21.8	21.8	21.8	84	17.7	1	3	248	0.00	29.778 
04:50	21.8	21.8	21.8	84	17.7	0	2	248	0.00	29.779 
04:55	21.9	21.9	21.9	84	17.8	1	3	248	0.00	29.782 
05:00	21.9	21.9	21.9	84	17.8	1	3	270	0.00	29.777 
05:05	21.9	21.9	21.9	84	17.8	0	2	338	0.00	29.782 
05:10	21.9	21.9	21.9	84	17.8	0	2	338	0.00	29.787 
05:15	21.9	21.9	21.9	84	17.8	1	3	248	0.00	29.792 
05:20	21.9	21.9	21.9	84	17.8	1	5	270	0.00	29.804 
05:25	22.1	22.1	22.1	84	18.0	1	4	270	0.00	29.807 
05:30	22.1	22.1	22.1	84	18.0	1	3	270	0.00	29.808 
05:35	22.1	22.1	22.1	84	18.0	2	5	270	0.00	29.808 
05:40	22.1	22.1	22.1	83	17.7	1	3	315	0.00	29.808 
05:45	22.1	22.1	22.1	83	17.7	1	5	248	0.00	29.811 
05:50	22.1	22.1	22.1	83	17.7	0	2	315	0.00	29.810 
05:55	21.9	21.9	21.9	82	17.3	0	2	292	0.00	29.809 
06:00	21.9	21.9	21.9	82	17.3	1	3	270	0.00	29.811 
06:05	21.8	21.8	21.8	82	17.2	0	1	315	0.00	29.811 
06:10	21.8	21.8	21.8	82	17.2	0	1	315	0.00	29.819 
06:15	21.8	21.8	21.8	81	16.9	0	2	315	0.00	29.822 
06:20	21.6	21.6	21.6	81	16.7	0	2	292	0.00	29.822 
06:25	21.6	21.6	21.6	81	16.7	0	3	338	0.00	29.824 
06:30	21.4	21.4	21.4	81	16.5	0	1	338	0.00	29.822 
06:35	21.1	21.1	21.1	81	16.2	0	1	338	0.00	29.819 
06:40	20.8	20.8	20.8	81	15.9	0	1	338	0.00	29.816 
06:45	20.5	20.5	20.5	81	15.6	0	0	---	0.00	29.811 
06:50	20.2	20.2	20.2	81	15.3	0	1	338	0.00	29.811 
06:55	19.9	19.9	19.9	81	15.0	0	1	338	0.00	29.817 
07:00	19.7	19.7	19.7	81	14.8	1	2	338	0.00	29.828 
07:05	19.5	19.5	19.5	81	14.6	0	2	338	0.00	29.834 
07:10	19.2	19.2	19.2	81	14.3	0	1	338	0.00	29.840 
07:15	19.2	19.2	19.2	81	14.3	0	2	338	0.00	29.842 
07:20	18.9	18.9	18.9	81	14.1	0	0	---	0.00	29.840 
07:25	18.8	18.8	18.8	81	14.0	0	1	338	0.00	29.845 
07:30	18.8	18.8	18.8	82	14.2	0	1	338	0.00	29.855 
07:35	18.9	18.9	18.9	82	14.3	0	1	338	0.00	29.860 
07:40	19.2	19.2	19.2	81	14.3	0	2	338	0.00	29.871 
07:45	19.4	19.4	19.4	81	14.5	0	1	338	0.00	29.874 
07:50	19.2	19.2	19.2	81	14.3	0	1	338	0.00	29.875 
07:55	19.2	19.2	19.2	81	14.3	0	2	338	0.00	29.878 
08:00	19.2	19.2	19.2	81	14.3	0	2	292	0.00	29.890 
08:05	19.4	19.4	19.4	81	14.5	1	3	248	0.00	29.892 
08:10	19.4	19.4	19.4	81	14.5	1	2	248	0.00	29.906 
08:15	19.7	19.7	19.7	81	14.8	1	4	225	0.00	29.918 
08:20	19.9	19.9	19.9	81	15.0	1	2	225	0.00	29.918 
08:25	19.9	19.9	19.9	80	14.7	1	3	292	0.00	29.920 
08:30	20.3	20.3	20.3	80	15.1	1	2	292	0.00	29.915 
08:35	20.6	20.6	20.6	79	15.1	1	3	248	0.00	29.918 
08:40	21.1	21.1	21.1	79	15.6	1	2	248	0.00	29.919 
08:45	21.4	21.4	21.4	78	15.6	1	3	248	0.00	29.921 
08:50	21.8	21.8	21.8	77	15.7	1	4	248	0.00	29.922 
08:55	22.1	22.1	22.1	77	16.0	2	5	248	0.00	29.921 
09:00	22.2	22.2	22.2	76	15.8	2	4	225	0.00	29.920 
09:05	22.4	22.4	22.4	76	16.0	1	4	248	0.00	29.918 
09:10	22.7	22.7	22.7	75	16.0	1	3	248	0.00	29.914 
09:15	22.9	22.9	22.9	75	16.2	1	3	248	0.00	29.918 
09:20	23.0	23.0	23.0	74	16.0	1	3	248	0.00	29.920 
09:25	23.2	23.2	23.2	73	15.9	2	4	248	0.00	29.923 
09:30	23.5	23.5	23.5	73	16.1	2	5	270	0.00	29.927 
09:35	23.6	23.6	23.6	73	16.2	2	4	248	0.00	29.932 
09:40	23.9	23.9	23.9	72	16.2	2	4	248	0.00	29.933 
09:45	24.2	24.2	24.2	72	16.5	2	4	248	0.00	29.933 
09:50	24.5	24.5	24.5	72	16.8	1	3	248	0.00	29.930 
09:55	24.8	24.8	24.8	71	16.8	1	3	248	0.00	29.930 
10:00	25.3	25.3	25.3	71	17.2	1	4	248	0.00	29.932 
10:05	25.4	25.4	25.4	70	17.0	1	3	248	0.01	29.934 
10:10	25.4	25.4	25.4	69	16.7	1	3	248	0.00	29.935 
10:15	25.7	25.7	25.7	69	17.0	2	4	248	0.01	29.941 
10:20	25.8	25.8	25.8	69	17.1	1	3	248	0.01	29.945 
10:25	25.8	25.8	25.8	67	16.4	2	4	248	0.01	29.947 
10:30	26.0	26.0	26.0	68	16.9	2	4	248	0.01	29.949 
10:35	26.3	26.3	26.3	67	16.9	2	6	270	0.00	29.951 
10:40	26.1	26.1	26.1	67	16.7	2	4	270	0.01	29.952 
10:45	26.4	26.4	26.4	66	16.6	2	3	292	0.00	29.953 
10:50	26.9	26.9	26.9	68	17.8	2	5	248	0.01	29.954 
10:55	27.3	27.3	27.3	66	17.5	1	6	248	0.01	29.957 
11:00	27.8	27.8	27.8	65	17.6	2	5	248	0.01	29.953 
11:05	27.8	27.8	27.8	64	17.2	3	6	248	0.00	29.952 
11:10	27.5	27.5	27.5	63	16.6	2	6	248	0.01	29.955 
11:15	27.3	27.3	27.3	63	16.4	2	6	292	0.01	29.952 
11:20	27.3	27.3	27.3	63	16.4	3	6	248	0.00	29.951 
11:25	27.5	27.5	27.5	64	16.9	3	9	248	0.01	29.954 
11:30	27.8	27.8	27.8	64	17.2	2	6	248	0.00	29.949 
11:35	28.2	28.2	28.2	62	16.9	1	4	248	0.01	29.952 
11:40	28.5	28.5	28.5	64	17.9	2	7	248	0.00	29.950 
11:45	29.0	29.0	29.0	63	18.0	2	4	248	0.01	29.949 
11:50	29.0	29.0	29.0	62	17.6	2	6	248	0.00	29.948 
11:55	29.1	29.1	29.1	61	17.4	2	7	248	0.01	29.950 
12:00	29.0	29.0	29.0	61	17.3	2	5	292	0.00	29.949 
12:05	28.8	28.8	28.8	61	17.1	2	4	248	0.01	29.950 
12:10	29.1	29.1	29.1	62	17.7	1	6	248	0.00	29.951 
12:15	29.1	29.1	29.1	59	16.6	1	3	270	0.01	29.955 
12:20	29.0	29.0	29.0	60	16.9	2	4	270	0.01	29.956 
12:25	29.1	29.1	29.1	60	17.0	1	4	248	0.00	29.951 
12:30	29.4	29.4	29.4	62	18.0	2	5	248	0.01	29.949 
12:35	29.8	29.8	29.8	60	17.6	2	5	248	0.01	29.948 
12:40	30.0	30.0	30.0	59	17.4	2	4	248	0.00	29.951 
12:45	30.3	30.3	30.3	59	17.7	1	4	248	0.01	29.949 
12:50	30.3	30.3	30.3	57	16.9	2	4	248	0.00	29.945 
12:55	30.3	30.3	30.3	56	16.5	2	4	248	0.01	29.944 
13:00	30.1	30.1	30.1	56	16.3	2	3	270	0.01	29.944 
13:05	30.3	30.3	30.3	58	17.3	1	3	270	0.00	29.945 
13:10	30.3	30.3	30.3	58	17.3	1	4	338	0.01	29.944 
13:15	30.9	30.9	30.9	59	18.3	1	3	248	0.00	29.939 
13:20	31.2	31.2	31.2	58	18.2	1	4	225	0.01	29.937 
13:25	31.0	31.0	31.0	57	17.6	1	3	315	0.00	29.935 
13:30	31.0	31.0	31.0	57	17.6	1	3	270	0.01	29.932 
13:35	30.9	30.9	30.9	57	17.5	1	3	292	0.01	29.930 
13:40	31.2	31.2	31.2	58	18.2	1	4	248	0.00	29.932 
13:45	31.3	31.3	31.3	58	18.3	1	4	248	0.01	29.931 
13:50	31.5	31.5	31.5	56	17.6	1	4	292	0.01	29.930 
13:55	31.5	31.5	31.5	56	17.6	1	3	248	0.01	29.928 
14:00	31.5	31.5	31.5	56	17.6	1	3	338	0.00	29.929 
14:05	32.1	32.1	32.1	57	18.6	1	3	270	0.01	29.930 
14:10	32.5	32.5	32.5	57	19.0	1	4	248	0.01	29.930 
14:15	32.8	32.8	32.8	54	18.0	1	3	248	0.00	29.925 
14:20	32.7	32.7	32.7	54	17.9	2	5	248	0.01	29.927 
14:25	32.5	32.5	32.5	54	17.7	1	4	248	0.00	29.928 
14:30	32.5	32.5	32.5	53	17.3	1	5	270	0.01	29.930 
14:35	32.7	32.7	32.7	54	17.9	1	4	270	0.01	29.931 
14:40	32.2	32.2	32.2	56	18.3	2	5	315	0.00	29.937 
14:45	32.2	32.2	32.2	56	18.3	2	4	270	0.00	29.941 
14:50	32.5	32.5	32.5	55	18.2	1	3	270	0.00	29.944 
14:55	32.5	32.5	32.5	55	18.2	2	4	270	0.01	29.945 
15:00	32.5	32.5	32.5	56	18.6	2	4	248	0.00	29.953 
15:05	32.5	32.5	32.5	57	19.0	2	4	270	0.00	29.959 
15:10	32.5	32.5	32.5	58	19.4	2	5	270	0.00	29.959 
15:15	32.5	32.5	32.5	57	19.0	2	6	270	0.01	29.958 
15:20	32.1	32.1	32.1	58	19.0	3	7	270	0.00	29.960 
15:25	31.6	31.6	31.6	59	18.9	3	6	270	0.00	29.957 
15:30	31.5	31.5	31.5	58	18.4	2	5	270	0.00	29.958 
15:35	31.3	31.3	31.3	59	18.7	2	6	270	0.00	29.960 
15:40	31.5	31.5	31.5	59	18.8	2	6	270	0.01	29.959 
15:45	31.8	31.8	31.8	59	19.1	2	3	248	0.00	29.958 
15:50	31.8	31.8	31.8	61	19.9	3	5	270	0.00	29.959 
15:55	31.9	31.9	31.9	61	20.0	1	5	270	0.00	29.961 
16:00	32.2	32.2	32.2	61	20.3	2	5	270	0.00	29.960 
16:05	32.4	32.4	32.4	60	20.1	2	4	270	0.01	29.960 
16:10	32.4	32.4	32.4	59	19.7	2	5	270	0.00	29.960 
16:15	32.5	32.5	32.5	60	20.2	2	5	270	0.00	29.961 
16:20	32.7	32.7	32.7	60	20.4	1	5	225	0.00	29.963 
16:25	32.7	32.7	32.7	60	20.4	2	4	270	0.00	29.962 
16:30	32.5	32.5	32.5	61	20.6	2	6	270	0.00	29.963 
16:35	32.2	32.2	32.2	61	20.3	2	5	270	0.01	29.964 
16:40	32.1	32.1	32.1	62	20.6	2	5	270	0.00	29.963 
16:45	32.1	32.1	32.1	62	20.6	2	3	270	0.00	29.967 
16:50	32.1	32.1	32.1	63	20.9	1	4	248	0.00	29.969 
16:55	32.2	32.2	32.2	63	21.0	1	5	248	0.00	29.968 
17:00	32.4	32.4	32.4	63	21.2	1	3	248	0.00	29.965 
17:05	32.4	32.4	32.4	63	21.2	1	5	248	0.00	29.961 
17:10	32.4	32.4	32.4	64	21.6	1	6	248	0.00	29.962 
17:15	32.2	32.2	32.2	64	21.4	1	5	248	0.01	29.962 
17:20	32.1	32.1	32.1	65	21.7	1	4	248	0.00	29.964 
17:25	32.1	32.1	32.1	65	21.7	2	4	248	0.00	29.967 
17:30	32.2	32.2	32.2	65	21.8	0	2	248	0.00	29.964 
17:35	31.9	31.9	31.9	65	21.5	1	4	270	0.00	29.962 
17:40	31.8	31.8	31.8	64	21.0	1	3	248	0.00	29.963 
17:45	31.6	31.6	31.6	64	20.8	1	2	248	0.00	29.964 
17:50	31.6	31.6	31.6	65	21.2	1	2	248	0.00	29.964 
17:55	31.5	31.5	31.5	65	21.1	1	2	248	0.00	29.966 
18:00	31.5	31.5	31.5	66	21.5	0	2	248	0.00	29.968 
18:05	31.3	31.3	31.3	66	21.3	0	1	248	0.00	29.977 
18:10	31.2	31.2	31.2	67	21.5	1	3	248	0.00	29.979 
18:15	31.0	31.0	31.0	68	21.7	0	1	248	0.00	29.980 
18:20	31.0	31.0	31.0	69	22.0	1	3	248	0.00	29.981 
18:25	30.9	30.9	30.9	69	21.9	1	2	248	0.00	29.981 
18:30	30.7	30.7	30.7	69	21.8	0	2	248	0.00	29.979 
18:35	30.7	30.7	30.7	70	22.1	0	2	248	0.00	29.980 
18:40	30.6	30.6	30.6	70	22.0	0	1	248	0.00	29.981 
18:45	30.6	30.6	30.6	70	22.0	1	2	248	0.00	29.982 
18:50	30.6	30.6	30.6	70	22.0	0	2	248	0.00	29.987 
18:55	30.4	30.4	30.4	71	22.1	0	2	248	0.00	29.990 
19:00	30.3	30.3	30.3	72	22.4	0	1	248	0.00	29.993 
19:05	30.1	30.1	30.1	73	22.5	0	2	248	0.00	29.996 
19:10	30.1	30.1	30.1	73	22.5	0	1	248	0.00	29.995 
19:15	30.1	30.1	30.1	74	22.8	0	1	248	0.00	29.995 
19:20	30.0	30.0	30.0	73	22.4	0	2	248	0.00	29.996 
19:25	30.0	30.0	30.0	74	22.7	0	3	248	0.00	29.996 
19:30	29.8	29.8	29.8	74	22.5	0	1	248	0.00	29.997 
19:35	29.8	29.8	29.8	74	22.5	0	2	248	0.00	29.998 
19:40	29.8	29.8	29.8	74	22.5	0	2	248	0.00	30.001 
19:45	29.7	29.7	29.7	75	22.8	0	1	270	0.00	30.002 
19:50	29.7	29.7	29.7	75	22.8	0	2	270	0.00	30.003 
19:55	29.7	29.7	29.7	75	22.8	0	1	270	0.00	30.002 
20:00	29.7	29.7	29.7	75	22.8	0	1	270	0.00	30.009 
20:05	29.5	29.5	29.5	75	22.6	0	2	270	0.00	30.007 
20:10	29.7	29.7	29.7	74	22.4	1	3	248	0.00	30.008 
20:15	29.7	29.7	29.7	75	22.8	0	2	248	0.00	30.008 
20:20	29.5	29.5	29.5	75	22.6	0	2	248	0.00	30.008 
20:25	29.5	29.5	29.5	75	22.6	0	1	248	0.00	30.008 
20:30	29.4	29.4	29.4	75	22.5	0	1	248	0.00	30.010 
20:35	29.3	29.3	29.3	74	22.1	0	2	248	0.00	30.008 
20:40	29.1	29.1	29.1	74	21.9	0	1	248	0.00	30.010 
20:45	29.0	29.0	29.0	75	22.1	0	1	248	0.00	30.011 
20:50	29.0	29.0	29.0	75	22.1	0	1	248	0.00	30.011 
20:55	28.8	28.8	28.8	76	22.2	0	1	248	0.00	30.012 
21:00	28.7	28.7	28.7	76	22.1	0	1	248	0.00	30.014 
21:05	28.5	28.5	28.5	76	21.9	0	1	248	0.00	30.012 
21:10	28.4	28.4	28.4	77	22.1	0	2	248	0.00	30.015 
21:15	28.2	28.2	28.2	77	21.9	0	0	---	0.00	30.016 
21:20	28.1	28.1	28.1	77	21.8	0	0	---	0.00	30.015 
21:25	27.9	27.9	27.9	77	21.6	0	0	---	0.00	30.015 
21:30	27.8	27.8	27.8	78	21.8	0	1	248	0.00	30.018 
21:35	27.8	27.8	27.8	78	21.8	0	0	---	0.00	30.017 
21:40	27.6	27.6	27.6	78	21.7	0	0	---	0.00	30.017 
21:45	27.6	27.6	27.6	79	22.0	0	0	---	0.00	30.015 
21:50	27.5	27.5	27.5	79	21.9	0	0	---	0.00	30.016 
21:55	27.5	27.5	27.5	80	22.2	0	0	---	0.00	30.018 
22:00	27.6	27.6	27.6	80	22.3	0	1	248	0.00	30.020 
22:05	27.8	27.8	27.8	80	22.4	0	1	248	0.00	30.016 
22:10	27.8	27.8	27.8	81	22.7	0	1	248	0.00	30.018 
22:15	27.9	27.9	27.9	81	22.8	0	1	248	0.00	30.016 
22:20	27.9	27.9	27.9	81	22.8	0	0	---	0.00	30.017 
22:25	28.1	28.1	28.1	81	23.0	0	1	248	0.00	30.017 
22:30	28.1	28.1	28.1	81	23.0	0	1	248	0.00	30.017 
22:35	28.2	28.2	28.2	81	23.1	0	1	248	0.00	30.019 
22:40	28.4	28.4	28.4	81	23.3	0	1	248	0.00	30.020 
22:45	28.4	28.4	28.4	81	23.3	0	2	248	0.00	30.021 
22:50	28.5	28.5	28.5	81	23.4	0	2	248	0.00	30.021 
22:55	28.5	28.5	28.5	81	23.4	0	1	248	0.00	30.020 
23:00	28.5	28.5	28.5	81	23.4	0	1	248	0.00	30.020 
23:05	28.7	28.7	28.7	81	23.6	0	1	248	0.00	30.018 
23:10	28.7	28.7	28.7	81	23.6	0	1	248	0.00	30.017 
23:15	28.7	28.7	28.7	82	23.9	0	1	248	0.00	30.014 
23:20	28.7	28.7	28.7	82	23.9	0	3	180	0.00	30.015 
23:25	28.8	28.8	28.8	82	24.0	0	2	225	0.00	30.017 
23:30	28.8	28.8	28.8	82	24.0	1	4	180	0.00	30.012 
23:35	29.0	29.0	29.0	82	24.2	1	3	112	0.00	30.010 
23:40	29.0	29.0	29.0	81	23.9	1	3	112	0.00	30.005 
23:45	29.1	29.1	29.1	81	24.0	0	3	112	0.00	30.007 
23:50	29.1	29.1	29.1	82	24.3	0	2	270	0.00	30.010 
23:55	29.3	29.3	29.3	81	24.2	1	4	270	0.00	30.015 

CoCoRaHS
IN-AL-39
A2 Web Hosting
Creative Commons License
GoDaddy
Look for:

loaded 2017-10-16 20:12:40 • last modified 2010-11-18 10:43:29
Privacy PolicyDisclaimer
• wx.awcolley.com is powered by PmWiki v.2002016 •
• all content (unless otherwise noted) © 2017 A W Colley